sensor_id;sensor_type;location;lat;lon;timestamp;pressure;altitude;pressure_sealevel;temperature;humidity
3250;BME280;1637;42.020;23.992;2022-10-03T00:00:35;92940.69;;;8.28;86.03
3250;BME280;1637;42.020;23.992;2022-10-03T00:03:24;92941.41;;;8.79;83.26
3250;BME280;1637;42.020;23.992;2022-10-03T00:06:05;92944.50;;;8.52;83.05
3250;BME280;1637;42.020;23.992;2022-10-03T00:08:54;92935.34;;;8.14;84.10
3250;BME280;1637;42.020;23.992;2022-10-03T00:11:34;92933.06;;;8.31;83.17
3250;BME280;1637;42.020;23.992;2022-10-03T00:14:15;92927.34;;;8.14;83.84
3250;BME280;1637;42.020;23.992;2022-10-03T00:16:48;92925.81;;;7.96;84.62
3250;BME280;1637;42.020;23.992;2022-10-03T00:19:27;92917.81;;;7.92;86.40
3250;BME280;1637;42.020;23.992;2022-10-03T00:22:06;92930.41;;;8.45;83.79
3250;BME280;1637;42.020;23.992;2022-10-03T00:24:43;92926.97;;;8.41;83.08
3250;BME280;1637;42.020;23.992;2022-10-03T00:27:24;92929.25;;;8.35;82.15
3250;BME280;1637;42.020;23.992;2022-10-03T00:30:03;92931.94;;;8.10;82.88
3250;BME280;1637;42.020;23.992;2022-10-03T00:32:48;92907.09;;;7.49;85.12
3250;BME280;1637;42.020;23.992;2022-10-03T00:35:33;92917.34;;;7.37;85.47
3250;BME280;1637;42.020;23.992;2022-10-03T00:38:16;92915.88;;;7.61;84.79
3250;BME280;1637;42.020;23.992;2022-10-03T00:41:05;92916.66;;;7.61;86.79
3250;BME280;1637;42.020;23.992;2022-10-03T00:44:10;92912.06;;;7.47;87.63
3250;BME280;1637;42.020;23.992;2022-10-03T00:47:00;92910.84;;;7.20;89.60
3250;BME280;1637;42.020;23.992;2022-10-03T00:50:03;92899.03;;;7.28;90.23
3250;BME280;1637;42.020;23.992;2022-10-03T00:52:57;92852.66;;;7.54;86.76
3250;BME280;1637;42.020;23.992;2022-10-03T00:55:39;92892.66;;;8.14;84.63
3250;BME280;1637;42.020;23.992;2022-10-03T00:58:28;92895.72;;;7.88;86.21
3250;BME280;1637;42.020;23.992;2022-10-03T01:01:20;92891.13;;;7.64;86.75
3250;BME280;1637;42.020;23.992;2022-10-03T01:03:55;92891.09;;;7.42;88.25
3250;BME280;1637;42.020;23.992;2022-10-03T01:06:34;92877.41;;;7.47;88.29
3250;BME280;1637;42.020;23.992;2022-10-03T01:12:08;92834.25;;;6.78;91.44
3250;BME280;1637;42.020;23.992;2022-10-03T01:14:54;92867.41;;;7.09;92.10
3250;BME280;1637;42.020;23.992;2022-10-03T01:17:35;92864.72;;;6.95;92.31
3250;BME280;1637;42.020;23.992;2022-10-03T01:20:13;92858.59;;;6.87;93.19
3250;BME280;1637;42.020;23.992;2022-10-03T01:23:17;92856.47;;;7.53;90.52
3250;BME280;1637;42.020;23.992;2022-10-03T01:25:53;92859.88;;;7.36;89.08
3250;BME280;1637;42.020;23.992;2022-10-03T01:28:39;92850.59;;;6.80;94.04
3250;BME280;1637;42.020;23.992;2022-10-03T01:31:30;92848.69;;;6.80;92.84
3250;BME280;1637;42.020;23.992;2022-10-03T01:34:03;92842.56;;;6.62;95.54
3250;BME280;1637;42.020;23.992;2022-10-03T01:36:38;92856.22;;;6.57;95.39
3250;BME280;1637;42.020;23.992;2022-10-03T01:39:14;92658.88;;;5.47;93.26
3250;BME280;1637;42.020;23.992;2022-10-03T01:41:51;92847.09;;;6.65;94.20
3250;BME280;1637;42.020;23.992;2022-10-03T01:44:30;92847.13;;;6.69;94.23
3250;BME280;1637;42.020;23.992;2022-10-03T01:47:12;92846.34;;;6.68;94.24
3250;BME280;1637;42.020;23.992;2022-10-03T01:49:44;92846.31;;;6.54;94.27
3250;BME280;1637;42.020;23.992;2022-10-03T01:52:19;92843.59;;;6.40;95.62
3250;BME280;1637;42.020;23.992;2022-10-03T01:54:57;92851.53;;;6.33;97.45
3250;BME280;1637;42.020;23.992;2022-10-03T01:57:33;92840.13;;;6.32;96.70
3250;BME280;1637;42.020;23.992;2022-10-03T02:00:07;92843.31;;;6.66;95.56
3250;BME280;1637;42.020;23.992;2022-10-03T02:02:43;92848.75;;;6.95;92.71
3250;BME280;1637;42.020;23.992;2022-10-03T02:05:16;92870.78;;;6.92;92.11
3250;BME280;1637;42.020;23.992;2022-10-03T02:07:51;92841.88;;;6.94;91.98
3250;BME280;1637;42.020;23.992;2022-10-03T02:10:33;92844.91;;;6.88;92.09
3250;BME280;1637;42.020;23.992;2022-10-03T02:13:08;92857.06;;;6.86;93.26
3250;BME280;1637;42.020;23.992;2022-10-03T02:15:50;92836.53;;;6.83;92.42
3250;BME280;1637;42.020;23.992;2022-10-03T02:18:27;92835.38;;;6.80;93.02
3250;BME280;1637;42.020;23.992;2022-10-03T02:21:07;92827.34;;;6.70;93.48
3250;BME280;1637;42.020;23.992;2022-10-03T02:23:40;92825.06;;;6.65;93.96
3250;BME280;1637;42.020;23.992;2022-10-03T02:29:40;92831.06;;;6.40;96.67
3250;BME280;1637;42.020;23.992;2022-10-03T02:32:37;92824.84;;;6.18;97.42
3250;BME280;1637;42.020;23.992;2022-10-03T02:35:25;92814.47;;;6.79;93.97
3250;BME280;1637;42.020;23.992;2022-10-03T02:38:16;92815.97;;;6.73;94.17
3250;BME280;1637;42.020;23.992;2022-10-03T02:44:18;92807.25;;;6.79;94.50
3250;BME280;1637;42.020;23.992;2022-10-03T02:47:21;92809.56;;;6.92;93.55
3250;BME280;1637;42.020;23.992;2022-10-03T02:56:54;92809.16;;;6.03;100.00
3250;BME280;1637;42.020;23.992;2022-10-03T03:00:03;92799.81;;;6.27;97.39
3250;BME280;1637;42.020;23.992;2022-10-03T03:03:00;92801.03;;;6.43;97.33
3250;BME280;1637;42.020;23.992;2022-10-03T03:06:10;92800.31;;;6.53;95.51
3250;BME280;1637;42.020;23.992;2022-10-03T03:18:01;92795.19;;;6.13;98.09
3250;BME280;1637;42.020;23.992;2022-10-03T03:20:40;92779.75;;;6.47;95.28
3250;BME280;1637;42.020;23.992;2022-10-03T03:26:25;92783.13;;;6.33;96.00
3250;BME280;1637;42.020;23.992;2022-10-03T03:29:04;92778.22;;;6.46;95.72
3250;BME280;1637;42.020;23.992;2022-10-03T03:31:38;92778.13;;;6.25;97.83
3250;BME280;1637;42.020;23.992;2022-10-03T03:34:17;92781.53;;;6.14;98.63
3250;BME280;1637;42.020;23.992;2022-10-03T03:36:51;92780.78;;;6.17;98.31
3250;BME280;1637;42.020;23.992;2022-10-03T03:39:32;92776.50;;;5.99;99.76
3250;BME280;1637;42.020;23.992;2022-10-03T03:42:17;92768.78;;;5.83;100.00
3250;BME280;1637;42.020;23.992;2022-10-03T03:45:17;92768.88;;;5.94;100.00
3250;BME280;1637;42.020;23.992;2022-10-03T03:48:11;92759.34;;;5.89;100.00
3250;BME280;1637;42.020;23.992;2022-10-03T03:50:54;92766.59;;;5.92;100.00
3250;BME280;1637;42.020;23.992;2022-10-03T03:53:49;92764.03;;;5.51;100.00
3250;BME280;1637;42.020;23.992;2022-10-03T03:56:37;92745.38;;;5.99;100.00
3250;BME280;1637;42.020;23.992;2022-10-03T03:59:20;92761.97;;;6.76;96.93
3250;BME280;1637;42.020;23.992;2022-10-03T04:02:04;92755.88;;;6.61;96.33
3250;BME280;1637;42.020;23.992;2022-10-03T04:04:44;92771.88;;;6.89;95.23
3250;BME280;1637;42.020;23.992;2022-10-03T04:07:31;92761.66;;;7.02;93.93
3250;BME280;1637;42.020;23.992;2022-10-03T04:10:15;92780.25;;;6.77;94.89
3250;BME280;1637;42.020;23.992;2022-10-03T04:13:08;92774.19;;;6.91;94.60
3250;BME280;1637;42.020;23.992;2022-10-03T04:15:58;92765.19;;;6.12;99.34
3250;BME280;1637;42.020;23.992;2022-10-03T04:18:46;92755.22;;;5.95;100.00
3250;BME280;1637;42.020;23.992;2022-10-03T04:21:48;92773.69;;;6.50;97.82
3250;BME280;1637;42.020;23.992;2022-10-03T04:24:39;92763.94;;;6.97;94.70
3250;BME280;1637;42.020;23.992;2022-10-03T04:27:43;92755.81;;;6.40;97.76
3250;BME280;1637;42.020;23.992;2022-10-03T04:30:18;92754.28;;;6.42;100.00
3250;BME280;1637;42.020;23.992;2022-10-03T04:32:58;92754.78;;;6.90;96.83
3250;BME280;1637;42.020;23.992;2022-10-03T04:38:44;92754.69;;;6.55;98.79
3250;BME280;1637;42.020;23.992;2022-10-03T04:41:23;92745.63;;;6.74;97.52
3250;BME280;1637;42.020;23.992;2022-10-03T04:44:00;92752.81;;;6.66;97.47
3250;BME280;1637;42.020;23.992;2022-10-03T04:46:38;92746.19;;;6.10;99.31
3250;BME280;1637;42.020;23.992;2022-10-03T04:49:15;92830.88;;;6.12;100.00
3250;BME280;1637;42.020;23.992;2022-10-03T04:51:50;92743.19;;;6.23;100.00
3250;BME280;1637;42.020;23.992;2022-10-03T04:54:25;92705.28;;;5.60;100.00
3250;BME280;1637;42.020;23.992;2022-10-03T04:57:00;92741.28;;;6.27;100.00
3250;BME280;1637;42.020;23.992;2022-10-03T04:59:41;92743.25;;;6.40;100.00
3250;BME280;1637;42.020;23.992;2022-10-03T05:02:24;92745.94;;;6.44;99.46
3250;BME280;1637;42.020;23.992;2022-10-03T05:05:10;92740.97;;;6.46;99.47
3250;BME280;1637;42.020;23.992;2022-10-03T05:07:47;92749.03;;;6.64;98.04
3250;BME280;1637;42.020;23.992;2022-10-03T05:10:28;92743.34;;;6.72;96.86
3250;BME280;1637;42.020;23.992;2022-10-03T05:13:05;92747.56;;;6.80;96.32
3250;BME280;1637;42.020;23.992;2022-10-03T05:15:46;92761.28;;;7.04;94.93
3250;BME280;1637;42.020;23.992;2022-10-03T05:18:18;92803.13;;;7.28;92.30
3250;BME280;1637;42.020;23.992;2022-10-03T05:20:52;92750.22;;;7.69;91.27
3250;BME280;1637;42.020;23.992;2022-10-03T05:23:31;92754.38;;;7.99;88.29
3250;BME280;1637;42.020;23.992;2022-10-03T05:26:12;92746.69;;;8.25;87.32
3250;BME280;1637;42.020;23.992;2022-10-03T05:28:47;92747.81;;;9.12;83.51
3250;BME280;1637;42.020;23.992;2022-10-03T05:31:25;92748.44;;;9.30;80.94
3250;BME280;1637;42.020;23.992;2022-10-03T05:34:01;92751.69;;;9.52;79.35
3250;BME280;1637;42.020;23.992;2022-10-03T05:36:34;92737.00;;;9.26;80.11
3250;BME280;1637;42.020;23.992;2022-10-03T05:39:25;92747.78;;;8.46;84.66
3250;BME280;1637;42.020;23.992;2022-10-03T05:41:54;92755.34;;;8.58;84.62
3250;BME280;1637;42.020;23.992;2022-10-03T05:44:36;92752.75;;;8.33;85.48
3250;BME280;1637;42.020;23.992;2022-10-03T05:47:09;92743.97;;;8.47;86.01
3250;BME280;1637;42.020;23.992;2022-10-03T05:50:05;92748.06;;;8.69;85.25
3250;BME280;1637;42.020;23.992;2022-10-03T05:52:49;92740.97;;;8.27;87.80
3250;BME280;1637;42.020;23.992;2022-10-03T05:55:37;92749.56;;;8.70;86.82
3250;BME280;1637;42.020;23.992;2022-10-03T05:58:24;92742.53;;;8.98;85.65
3250;BME280;1637;42.020;23.992;2022-10-03T06:04:15;92737.66;;;8.82;88.47
3250;BME280;1637;42.020;23.992;2022-10-03T06:07:00;92744.91;;;9.40;85.87
3250;BME280;1637;42.020;23.992;2022-10-03T06:09:53;92744.28;;;10.11;80.84
3250;BME280;1637;42.020;23.992;2022-10-03T06:12:35;92750.03;;;10.78;77.85
3250;BME280;1637;42.020;23.992;2022-10-03T06:15:28;92758.91;;;13.21;70.04
3250;BME280;1637;42.020;23.992;2022-10-03T06:18:20;92761.69;;;14.60;62.56
3250;BME280;1637;42.020;23.992;2022-10-03T06:21:22;92761.34;;;13.15;65.75
3250;BME280;1637;42.020;23.992;2022-10-03T06:27:17;92742.97;;;10.60;75.85
3250;BME280;1637;42.020;23.992;2022-10-03T06:30:03;92741.66;;;11.02;74.49
3250;BME280;1637;42.020;23.992;2022-10-03T06:39:16;92743.28;;;12.96;68.55
3250;BME280;1637;42.020;23.992;2022-10-03T06:51:12;92733.09;;;17.36;55.44
3250;BME280;1637;42.020;23.992;2022-10-03T06:54:11;92728.84;;;15.57;60.21
3250;BME280;1637;42.020;23.992;2022-10-03T06:57:06;92727.59;;;13.79;65.00
3250;BME280;1637;42.020;23.992;2022-10-03T07:00:06;92710.19;;;12.63;69.34
3250;BME280;1637;42.020;23.992;2022-10-03T07:02:48;92711.69;;;13.20;69.23
3250;BME280;1637;42.020;23.992;2022-10-03T07:08:59;92701.13;;;14.77;64.21
3250;BME280;1637;42.020;23.992;2022-10-03T07:12:21;92709.09;;;13.32;67.93
3250;BME280;1637;42.020;23.992;2022-10-03T07:21:32;92673.38;;;12.96;69.97
3250;BME280;1637;42.020;23.992;2022-10-03T07:24:27;92682.09;;;13.36;69.09
3250;BME280;1637;42.020;23.992;2022-10-03T07:27:18;92692.53;;;13.34;70.21
3250;BME280;1637;42.020;23.992;2022-10-03T07:30:05;92687.31;;;12.91;70.57
3250;BME280;1637;42.020;23.992;2022-10-03T07:35:39;92714.13;;;12.58;71.24
3250;BME280;1637;42.020;23.992;2022-10-03T07:39:09;92704.50;;;12.41;70.37
3250;BME280;1637;42.020;23.992;2022-10-03T07:41:59;92691.31;;;12.66;69.71
3250;BME280;1637;42.020;23.992;2022-10-03T07:50:49;92682.94;;;12.81;71.39
3250;BME280;1637;42.020;23.992;2022-10-03T07:53:49;92683.47;;;13.28;71.33
3250;BME280;1637;42.020;23.992;2022-10-03T07:56:38;92698.06;;;14.91;64.37
3250;BME280;1637;42.020;23.992;2022-10-03T07:59:32;92703.66;;;17.47;58.22
3250;BME280;1637;42.020;23.992;2022-10-03T08:02:22;92714.97;;;18.96;54.21
3250;BME280;1637;42.020;23.992;2022-10-03T08:05:05;92716.69;;;19.77;52.56
3250;BME280;1637;42.020;23.992;2022-10-03T08:07:50;92721.50;;;20.06;50.72
3250;BME280;1637;42.020;23.992;2022-10-03T08:10:46;92702.63;;;18.03;54.97
3250;BME280;1637;42.020;23.992;2022-10-03T08:13:32;92682.84;;;15.23;63.97
3250;BME280;1637;42.020;23.992;2022-10-03T08:16:22;92678.66;;;15.09;66.26
3250;BME280;1637;42.020;23.992;2022-10-03T08:19:20;92682.94;;;15.70;64.76
3250;BME280;1637;42.020;23.992;2022-10-03T08:21:57;92685.31;;;16.02;63.58
3250;BME280;1637;42.020;23.992;2022-10-03T08:24:50;92683.72;;;16.48;62.35
3250;BME280;1637;42.020;23.992;2022-10-03T08:27:32;92688.09;;;16.68;61.04
3250;BME280;1637;42.020;23.992;2022-10-03T08:30:17;92668.94;;;16.84;61.56
3250;BME280;1637;42.020;23.992;2022-10-03T08:32:59;92668.69;;;16.91;61.65
3250;BME280;1637;42.020;23.992;2022-10-03T08:38:56;92674.28;;;16.97;59.88
3250;BME280;1637;42.020;23.992;2022-10-03T08:42:09;92681.56;;;16.78;60.36
3250;BME280;1637;42.020;23.992;2022-10-03T08:45:01;92676.06;;;16.69;61.92
3250;BME280;1637;42.020;23.992;2022-10-03T08:54:31;92682.59;;;16.37;63.17
3250;BME280;1637;42.020;23.992;2022-10-03T08:57:25;92678.75;;;16.25;62.55
3250;BME280;1637;42.020;23.992;2022-10-03T09:24:53;92702.09;;;16.54;61.22
3250;BME280;1637;42.020;23.992;2022-10-03T09:27:42;92715.41;;;17.53;60.69
3250;BME280;1637;42.020;23.992;2022-10-03T09:30:23;92683.56;;;17.27;58.91
3250;BME280;1637;42.020;23.992;2022-10-03T09:36:21;92708.38;;;18.42;54.63
3250;BME280;1637;42.020;23.992;2022-10-03T09:39:22;92707.00;;;18.19;55.80
3250;BME280;1637;42.020;23.992;2022-10-03T09:42:25;92696.53;;;17.72;57.94
3250;BME280;1637;42.020;23.992;2022-10-03T09:48:24;92702.00;;;18.08;61.62
3250;BME280;1637;42.020;23.992;2022-10-03T09:54:24;92691.66;;;17.58;64.52
3250;BME280;1637;42.020;23.992;2022-10-03T09:57:36;92691.66;;;17.58;65.62
3250;BME280;1637;42.020;23.992;2022-10-03T10:00:16;92684.53;;;17.91;65.03
3250;BME280;1637;42.020;23.992;2022-10-03T10:06:11;92692.94;;;19.12;62.34
3250;BME280;1637;42.020;23.992;2022-10-03T10:09:07;92693.16;;;18.81;62.74
3250;BME280;1637;42.020;23.992;2022-10-03T10:12:15;92690.72;;;18.55;63.19
3250;BME280;1637;42.020;23.992;2022-10-03T10:15:19;92681.72;;;18.68;63.03
3250;BME280;1637;42.020;23.992;2022-10-03T10:21:03;92681.19;;;18.97;63.07
3250;BME280;1637;42.020;23.992;2022-10-03T10:23:47;92688.28;;;19.03;61.91
3250;BME280;1637;42.020;23.992;2022-10-03T10:26:37;92688.81;;;18.65;63.77
3250;BME280;1637;42.020;23.992;2022-10-03T10:36:08;92683.81;;;18.27;66.13
3250;BME280;1637;42.020;23.992;2022-10-03T10:42:41;92693.59;;;18.34;64.58
3250;BME280;1637;42.020;23.992;2022-10-03T10:45:38;92693.47;;;18.28;65.36
3250;BME280;1637;42.020;23.992;2022-10-03T11:17:08;92655.31;;;16.44;78.53
3250;BME280;1637;42.020;23.992;2022-10-03T11:23:02;92647.41;;;16.71;79.44
3250;BME280;1637;42.020;23.992;2022-10-03T11:26:20;92652.25;;;16.76;79.41
3250;BME280;1637;42.020;23.992;2022-10-03T11:32:34;92652.16;;;16.89;80.66
3250;BME280;1637;42.020;23.992;2022-10-03T11:38:19;92669.09;;;16.80;78.67
3250;BME280;1637;42.020;23.992;2022-10-03T11:40:56;92669.06;;;17.02;77.71
3250;BME280;1637;42.020;23.992;2022-10-03T11:46:44;92661.22;;;17.04;75.76
3250;BME280;1637;42.020;23.992;2022-10-03T11:49:29;92673.16;;;16.85;78.06
3250;BME280;1637;42.020;23.992;2022-10-03T11:52:09;92659.38;;;17.32;77.10
3250;BME280;1637;42.020;23.992;2022-10-03T11:54:41;92667.09;;;17.43;73.40
3250;BME280;1637;42.020;23.992;2022-10-03T11:57:16;92671.38;;;17.62;71.89
3250;BME280;1637;42.020;23.992;2022-10-03T11:59:57;92669.38;;;17.53;70.61
3250;BME280;1637;42.020;23.992;2022-10-03T12:02:40;92659.44;;;17.50;70.75
3250;BME280;1637;42.020;23.992;2022-10-03T12:05:17;92665.50;;;17.14;72.76
3250;BME280;1637;42.020;23.992;2022-10-03T12:07:56;92665.88;;;17.35;70.84
3250;BME280;1637;42.020;23.992;2022-10-03T12:10:56;92658.47;;;17.75;70.25
3250;BME280;1637;42.020;23.992;2022-10-03T12:13:34;92655.66;;;17.48;71.01
3250;BME280;1637;42.020;23.992;2022-10-03T12:16:05;92675.94;;;17.74;68.45
3250;BME280;1637;42.020;23.992;2022-10-03T12:18:51;92670.78;;;17.67;69.48
3250;BME280;1637;42.020;23.992;2022-10-03T12:21:26;92667.78;;;17.25;70.66
3250;BME280;1637;42.020;23.992;2022-10-03T12:24:19;92671.97;;;17.17;71.73
3250;BME280;1637;42.020;23.992;2022-10-03T12:26:53;92662.84;;;17.33;70.69
3250;BME280;1637;42.020;23.992;2022-10-03T12:29:23;92661.94;;;16.96;70.33
3250;BME280;1637;42.020;23.992;2022-10-03T12:32:01;92666.91;;;16.66;71.39
3250;BME280;1637;42.020;23.992;2022-10-03T12:34:38;92669.41;;;16.61;71.51
3250;BME280;1637;42.020;23.992;2022-10-03T12:37:40;92668.72;;;16.69;72.04
3250;BME280;1637;42.020;23.992;2022-10-03T12:40:16;92671.94;;;16.77;71.59
3250;BME280;1637;42.020;23.992;2022-10-03T12:42:49;92665.75;;;16.76;71.69
3250;BME280;1637;42.020;23.992;2022-10-03T12:45:31;92670.56;;;17.03;70.35
3250;BME280;1637;42.020;23.992;2022-10-03T12:48:09;92669.69;;;16.84;71.31
3250;BME280;1637;42.020;23.992;2022-10-03T12:50:44;92673.38;;;16.69;71.14
3250;BME280;1637;42.020;23.992;2022-10-03T12:53:29;92673.88;;;16.55;70.22
3250;BME280;1637;42.020;23.992;2022-10-03T12:56:13;92674.19;;;16.57;68.94
3250;BME280;1637;42.020;23.992;2022-10-03T12:58:58;92672.47;;;16.50;70.08
3250;BME280;1637;42.020;23.992;2022-10-03T13:01:57;92669.09;;;16.59;68.47
3250;BME280;1637;42.020;23.992;2022-10-03T13:04:36;92654.00;;;16.48;68.97
3250;BME280;1637;42.020;23.992;2022-10-03T13:07:19;92665.81;;;16.64;68.82
3250;BME280;1637;42.020;23.992;2022-10-03T13:10:09;92667.16;;;16.81;68.76
3250;BME280;1637;42.020;23.992;2022-10-03T13:12:43;92651.25;;;16.92;66.20
3250;BME280;1637;42.020;23.992;2022-10-03T13:15:56;92656.13;;;17.06;63.88
3250;BME280;1637;42.020;23.992;2022-10-03T13:18:34;92661.06;;;16.99;64.41
3250;BME280;1637;42.020;23.992;2022-10-03T13:21:07;92661.94;;;16.96;63.23
3250;BME280;1637;42.020;23.992;2022-10-03T13:23:41;92660.50;;;17.04;62.72
3250;BME280;1637;42.020;23.992;2022-10-03T13:26:16;92650.31;;;16.86;63.45
3250;BME280;1637;42.020;23.992;2022-10-03T13:32:02;92657.75;;;16.51;61.73
3250;BME280;1637;42.020;23.992;2022-10-03T13:34:33;92656.38;;;16.46;62.13
3250;BME280;1637;42.020;23.992;2022-10-03T13:37:04;92660.66;;;16.57;61.63
3250;BME280;1637;42.020;23.992;2022-10-03T13:39:41;92654.50;;;16.56;61.84
3250;BME280;1637;42.020;23.992;2022-10-03T13:42:16;92662.88;;;16.71;61.74
3250;BME280;1637;42.020;23.992;2022-10-03T13:44:49;92668.44;;;16.98;61.51
3250;BME280;1637;42.020;23.992;2022-10-03T13:47:42;92671.31;;;17.04;58.92
3250;BME280;1637;42.020;23.992;2022-10-03T13:50:16;92679.75;;;16.84;59.73
3250;BME280;1637;42.020;23.992;2022-10-03T13:52:48;92678.41;;;16.58;61.24
3250;BME280;1637;42.020;23.992;2022-10-03T13:55:25;92678.53;;;16.76;60.31
3250;BME280;1637;42.020;23.992;2022-10-03T14:01:14;92669.91;;;16.46;61.84
3250;BME280;1637;42.020;23.992;2022-10-03T14:04:03;92663.69;;;16.59;59.97
3250;BME280;1637;42.020;23.992;2022-10-03T14:06:36;92666.13;;;16.66;59.88
3250;BME280;1637;42.020;23.992;2022-10-03T14:09:30;92658.41;;;16.77;59.71
3250;BME280;1637;42.020;23.992;2022-10-03T14:12:09;92663.84;;;16.86;57.90
3250;BME280;1637;42.020;23.992;2022-10-03T14:15:06;92664.66;;;16.96;57.10
3250;BME280;1637;42.020;23.992;2022-10-03T14:17:42;92662.88;;;17.02;57.62
3250;BME280;1637;42.020;23.992;2022-10-03T14:20:20;92705.06;;;16.90;57.42
3250;BME280;1637;42.020;23.992;2022-10-03T14:23:04;92664.25;;;17.06;56.86
3250;BME280;1637;42.020;23.992;2022-10-03T14:25:39;92672.63;;;17.30;54.43
3250;BME280;1637;42.020;23.992;2022-10-03T14:28:15;92664.06;;;17.32;54.55
3250;BME280;1637;42.020;23.992;2022-10-03T14:30:55;92652.53;;;17.09;58.97
3250;BME280;1637;42.020;23.992;2022-10-03T14:33:30;92665.81;;;17.26;57.40
3250;BME280;1637;42.020;23.992;2022-10-03T14:36:10;92672.22;;;17.10;57.20
3250;BME280;1637;42.020;23.992;2022-10-03T14:39:00;92663.19;;;16.73;58.66
3250;BME280;1637;42.020;23.992;2022-10-03T14:41:44;92668.06;;;16.87;58.41
3250;BME280;1637;42.020;23.992;2022-10-03T14:44:15;92669.56;;;16.88;56.71
3250;BME280;1637;42.020;23.992;2022-10-03T14:46:49;92676.50;;;16.67;57.69
3250;BME280;1637;42.020;23.992;2022-10-03T14:49:25;92658.44;;;16.42;58.67
3250;BME280;1637;42.020;23.992;2022-10-03T14:51:57;92674.34;;;16.84;58.67
3250;BME280;1637;42.020;23.992;2022-10-03T14:54:27;92678.56;;;16.85;58.51
3250;BME280;1637;42.020;23.992;2022-10-03T14:56:56;92681.97;;;16.98;61.65
3250;BME280;1637;42.020;23.992;2022-10-03T14:59:27;92681.41;;;17.12;60.98
3250;BME280;1637;42.020;23.992;2022-10-03T15:02:00;92684.25;;;17.09;60.99
3250;BME280;1637;42.020;23.992;2022-10-03T15:04:30;92674.44;;;16.71;63.38
3250;BME280;1637;42.020;23.992;2022-10-03T15:06:58;92685.19;;;16.62;62.79
3250;BME280;1637;42.020;23.992;2022-10-03T15:09:33;92685.13;;;16.53;61.48
3250;BME280;1637;42.020;23.992;2022-10-03T15:12:09;92686.13;;;16.46;61.65
3250;BME280;1637;42.020;23.992;2022-10-03T15:14:40;92679.06;;;16.27;63.28
3250;BME280;1637;42.020;23.992;2022-10-03T15:17:17;92685.19;;;16.40;62.75
3250;BME280;1637;42.020;23.992;2022-10-03T15:19:47;92682.94;;;16.61;62.59
3250;BME280;1637;42.020;23.992;2022-10-03T15:22:26;92676.50;;;16.45;63.04
3250;BME280;1637;42.020;23.992;2022-10-03T15:24:59;92681.84;;;16.36;62.52
3250;BME280;1637;42.020;23.992;2022-10-03T15:27:28;92683.81;;;16.36;63.41
3250;BME280;1637;42.020;23.992;2022-10-03T15:29:58;92691.16;;;16.35;62.10
3250;BME280;1637;42.020;23.992;2022-10-03T15:32:32;92689.97;;;16.36;62.18
3250;BME280;1637;42.020;23.992;2022-10-03T15:35:01;92688.94;;;15.87;62.87
3250;BME280;1637;42.020;23.992;2022-10-03T15:37:31;92691.19;;;15.88;63.26
3250;BME280;1637;42.020;23.992;2022-10-03T15:40:03;92707.94;;;15.96;64.13
3250;BME280;1637;42.020;23.992;2022-10-03T15:42:32;92686.22;;;15.87;63.65
3250;BME280;1637;42.020;23.992;2022-10-03T15:45:17;92716.31;;;15.63;64.72
3250;BME280;1637;42.020;23.992;2022-10-03T15:47:47;92717.19;;;15.35;67.18
3250;BME280;1637;42.020;23.992;2022-10-03T15:50:19;92724.94;;;15.33;67.20
3250;BME280;1637;42.020;23.992;2022-10-03T15:52:50;92721.91;;;15.31;67.54
3250;BME280;1637;42.020;23.992;2022-10-03T15:55:20;92727.00;;;15.16;67.91
3250;BME280;1637;42.020;23.992;2022-10-03T15:57:52;92728.19;;;15.28;68.64
3250;BME280;1637;42.020;23.992;2022-10-03T16:00:22;92729.91;;;15.09;68.22
3250;BME280;1637;42.020;23.992;2022-10-03T16:02:59;92722.34;;;14.50;69.08
3250;BME280;1637;42.020;23.992;2022-10-03T16:05:30;92717.13;;;14.42;69.87
3250;BME280;1637;42.020;23.992;2022-10-03T16:08:01;92725.88;;;14.47;69.34
3250;BME280;1637;42.020;23.992;2022-10-03T16:10:35;92732.38;;;14.62;70.29
3250;BME280;1637;42.020;23.992;2022-10-03T16:13:11;92724.72;;;14.60;70.92
3250;BME280;1637;42.020;23.992;2022-10-03T16:15:59;92728.38;;;14.37;69.85
3250;BME280;1637;42.020;23.992;2022-10-03T16:18:42;92731.94;;;14.34;69.27
3250;BME280;1637;42.020;23.992;2022-10-03T16:21:15;92749.47;;;14.26;71.23
3250;BME280;1637;42.020;23.992;2022-10-03T16:23:47;92761.19;;;14.20;71.59
3250;BME280;1637;42.020;23.992;2022-10-03T16:26:21;92762.16;;;14.13;72.08
3250;BME280;1637;42.020;23.992;2022-10-03T16:28:51;92766.84;;;14.09;72.21
3250;BME280;1637;42.020;23.992;2022-10-03T16:31:26;92755.25;;;13.80;72.85
3250;BME280;1637;42.020;23.992;2022-10-03T16:33:58;92753.75;;;13.30;74.55
3250;BME280;1637;42.020;23.992;2022-10-03T16:36:26;92753.63;;;13.17;76.33
3250;BME280;1637;42.020;23.992;2022-10-03T16:38:55;92759.69;;;13.21;75.37
3250;BME280;1637;42.020;23.992;2022-10-03T16:41:26;92758.59;;;13.35;74.21
3250;BME280;1637;42.020;23.992;2022-10-03T16:43:57;92766.31;;;13.17;73.98
3250;BME280;1637;42.020;23.992;2022-10-03T16:46:27;92774.81;;;13.12;74.32
3250;BME280;1637;42.020;23.992;2022-10-03T16:49:00;92784.56;;;13.05;74.06
3250;BME280;1637;42.020;23.992;2022-10-03T16:51:53;92784.81;;;13.11;73.63
3250;BME280;1637;42.020;23.992;2022-10-03T16:54:22;92799.25;;;13.21;73.01
3250;BME280;1637;42.020;23.992;2022-10-03T16:56:54;92793.53;;;13.19;73.18
3250;BME280;1637;42.020;23.992;2022-10-03T16:59:23;92779.22;;;12.66;74.52
3250;BME280;1637;42.020;23.992;2022-10-03T17:01:54;92766.94;;;12.25;75.62
3250;BME280;1637;42.020;23.992;2022-10-03T17:04:24;92777.41;;;12.20;76.11
3250;BME280;1637;42.020;23.992;2022-10-03T17:06:57;92785.16;;;12.57;75.81
3250;BME280;1637;42.020;23.992;2022-10-03T17:09:32;92794.94;;;12.67;75.89
3250;BME280;1637;42.020;23.992;2022-10-03T17:12:05;92779.69;;;12.41;76.12
3250;BME280;1637;42.020;23.992;2022-10-03T17:14:34;92797.75;;;12.60;75.50
3250;BME280;1637;42.020;23.992;2022-10-03T17:17:06;92806.47;;;12.25;77.09
3250;BME280;1637;42.020;23.992;2022-10-03T17:19:43;92804.94;;;12.24;76.23
3250;BME280;1637;42.020;23.992;2022-10-03T17:22:15;92813.94;;;12.14;76.73
3250;BME280;1637;42.020;23.992;2022-10-03T17:24:47;92821.13;;;11.97;77.62
3250;BME280;1637;42.020;23.992;2022-10-03T17:27:25;92824.63;;;12.17;77.92
3250;BME280;1637;42.020;23.992;2022-10-03T17:30:00;92825.53;;;12.07;78.02
3250;BME280;1637;42.020;23.992;2022-10-03T17:32:33;92825.84;;;11.89;78.50
3250;BME280;1637;42.020;23.992;2022-10-03T17:35:09;92833.72;;;11.73;76.99